Time;durP1;ratioP1;P1;durP2;ratioP2;P2;SDS_P1;SDS_P2;PMS_P1;PMS_P2;Temp;Humidity;BMP_temperature;BMP_pressure;BME280_temperature;BME280_humidity;BME280_pressure;Samples;Min_cycle;Max_cycle;Signal;HPM_P1;HPM_P2
2022/11/18 00:01:06;;;;;;;4.67;1.90;;;;;;;11.18;97.57;96352.59;5111791;23;20625;-88
2022/11/18 00:03:09;;;;;;;2.47;0.77;;;;;;;11.20;98.17;96353.28;5087329;23;20579;-88
2022/11/18 00:05:12;;;;;;;1.40;0.90;;;;;;;11.18;98.49;96352.59;5112778;23;21102;-88
2022/11/18 00:07:15;;;;;;;1.63;1.00;;;;;;;11.18;98.04;96351.78;5112049;23;20617;-88
2022/11/18 00:09:19;;;;;;;1.40;0.87;;;;;;;11.17;99.60;96352.72;5086055;23;20589;-88
2022/11/18 00:16:08;;;;;;;2.13;1.37;;;;;;;11.19;98.64;96340.38;5111047;23;20570;-87
2022/11/18 00:18:11;;;;;;;2.17;1.50;;;;;;;11.18;98.35;96331.72;5111428;23;20578;-88
2022/11/18 00:20:14;;;;;;;3.53;1.43;;;;;;;11.18;98.49;96334.31;5088340;23;20607;-88
2022/11/18 00:22:17;;;;;;;7.43;1.20;;;;;;;11.18;98.89;96339.53;5088889;23;20622;-88
2022/11/18 00:24:21;;;;;;;1.90;0.97;;;;;;;11.16;97.32;96335.47;5089540;23;20579;-87
2022/11/18 00:26:24;;;;;;;2.40;1.50;;;;;;;11.14;97.08;96343.44;5089030;23;20586;-88
2022/11/18 00:28:27;;;;;;;1.87;1.03;;;;;;;11.12;98.75;96334.91;5089229;23;20586;-88
2022/11/18 00:30:30;;;;;;;1.60;1.10;;;;;;;11.14;96.55;96333.00;5115365;23;20588;-88
2022/11/18 00:32:34;;;;;;;1.10;0.77;;;;;;;11.13;98.24;96333.97;5113576;23;20578;-88
2022/11/18 00:34:37;;;;;;;2.17;1.10;;;;;;;11.13;98.02;96336.56;5089547;23;20610;-89
2022/11/18 00:36:41;;;;;;;1.10;0.80;;;;;;;11.13;96.88;96333.97;5089262;23;20582;-88
2022/11/18 00:38:45;;;;;;;1.87;1.10;;;;;;;11.12;98.51;96342.75;5113919;23;20644;-88
2022/11/18 00:40:48;;;;;;;3.07;1.10;;;;;;;11.11;97.72;96341.13;5089040;23;20577;-88
2022/11/18 00:42:50;;;;;;;1.60;0.90;;;;;;;11.10;97.01;96336.88;5113250;23;20576;-88
2022/11/18 00:44:53;;;;;;;2.00;1.23;;;;;;;11.11;98.33;96335.91;5088829;23;20591;-87
2022/11/18 00:46:56;;;;;;;1.90;1.23;;;;;;;11.12;98.48;96334.13;5114035;23;20582;-88
2022/11/18 00:49:00;;;;;;;2.40;1.00;;;;;;;11.11;98.03;96332.47;5114102;23;20649;-88
2022/11/18 00:51:10;;;;;;;2.37;1.20;;;;;;;11.10;98.23;96341.28;5088622;23;20640;-88
2022/11/18 00:53:13;;;;;;;1.90;1.07;;;;;;;11.12;97.61;96344.53;5089494;23;21051;-88
2022/11/18 00:55:16;;;;;;;2.70;1.10;;;;;;;11.14;97.91;96346.03;5088708;23;20691;-88
2022/11/18 00:57:19;;;;;;;2.23;0.97;;;;;;;11.15;97.85;96345.06;5089010;23;20587;-88
2022/11/18 00:59:22;;;;;;;2.27;1.20;;;;;;;11.16;97.63;96341.50;5089853;23;20622;-88
2022/11/18 01:01:26;;;;;;;2.10;1.00;;;;;;;11.17;98.30;96343.13;5111464;23;20582;-88
2022/11/18 01:03:29;;;;;;;5.40;1.30;;;;;;;11.18;98.40;96351.78;5110995;23;20648;-87
2022/11/18 01:05:35;;;;;;;1.70;1.03;;;;;;;11.19;98.27;96350.81;5111067;23;21110;-88
2022/11/18 01:07:38;;;;;;;2.47;1.70;;;;;;;11.17;98.15;96345.75;5088303;23;20594;-88
2022/11/18 01:09:41;;;;;;;3.10;1.20;;;;;;;11.16;97.38;96343.28;5110389;23;21145;-87
2022/11/18 01:14:04;;;;;;;2.43;0.97;;;;;;;11.17;96.72;96348.34;5086085;23;20634;-88
2022/11/18 01:16:07;;;;;;;1.40;0.90;;;;;;;11.17;96.68;96348.34;5112703;23;20632;-88
2022/11/18 01:18:11;;;;;;;1.77;0.80;;;;;;;11.17;97.01;96352.72;5085894;23;20586;-88
2022/11/18 01:20:14;;;;;;;4.73;1.20;;;;;;;11.18;95.93;96355.19;5111535;23;20597;-88
2022/11/18 01:22:19;;;;;;;1.67;1.10;;;;;;;11.17;97.58;96355.34;5088830;23;21139;-88
2022/11/18 01:24:22;;;;;;;2.40;1.23;;;;;;;11.17;98.27;96356.19;5138733;23;20576;-88
2022/11/18 01:26:25;;;;;;;2.50;1.00;;;;;;;11.17;96.37;96353.56;5115762;23;20657;-88
2022/11/18 01:28:28;;;;;;;1.83;1.03;;;;;;;11.15;96.16;96352.88;5089851;23;20710;-88
2022/11/18 01:30:33;;;;;;;1.20;0.80;;;;;;;11.14;97.16;96353.03;5114972;23;20669;-88
2022/11/18 01:32:36;;;;;;;2.10;0.83;;;;;;;11.12;98.36;96361.00;5090839;23;20575;-88
2022/11/18 01:34:39;;;;;;;1.70;0.97;;;;;;;11.12;97.46;96350.56;5090195;23;20633;-88
2022/11/18 01:36:42;;;;;;;1.70;0.87;;;;;;;11.11;96.89;96350.72;5115147;23;20633;-88
2022/11/18 01:38:47;;;;;;;1.17;0.70;;;;;;;11.08;98.14;96348.41;5113963;23;21409;-88
2022/11/18 01:40:50;;;;;;;1.30;0.80;;;;;;;11.04;96.60;96357.53;5115139;23;20606;-88
2022/11/18 01:42:53;;;;;;;1.40;1.00;;;;;;;11.01;97.00;96356.03;5090472;23;20589;-88
2022/11/18 01:45:08;;;;;;;2.40;1.30;;;;;;;10.96;98.26;96363.50;5114387;23;20570;-88
2022/11/18 01:47:12;;;;;;;2.80;1.20;;;;;;;10.95;98.43;96356.63;5115185;23;20605;-88
2022/11/18 01:49:15;;;;;;;2.50;0.97;;;;;;;10.95;98.26;96367.06;5114833;23;20581;-88
2022/11/18 01:51:22;;;;;;;2.23;1.10;;;;;;;10.95;97.42;96361.84;5115288;23;20588;-88
2022/11/18 01:53:27;;;;;;;1.70;1.00;;;;;;;10.95;97.60;96355.81;5116222;23;20585;-88
2022/11/18 01:55:34;;;;;;;2.60;1.48;;;;;;;10.95;98.00;96366.25;5114803;23;20570;-88
2022/11/18 01:57:37;;;;;;;1.80;1.30;;;;;;;10.96;99.19;96366.09;5088812;23;20171;-88
2022/11/18 01:59:41;;;;;;;1.83;1.23;;;;;;;10.94;99.48;96370.63;5088944;23;20590;-88
2022/11/18 02:01:44;;;;;;;1.73;1.03;;;;;;;10.93;98.59;96362.94;5090761;23;20590;-88
2022/11/18 02:03:48;;;;;;;2.20;1.20;;;;;;;10.93;98.26;96366.41;5116221;23;21271;-88
2022/11/18 02:05:52;;;;;;;1.90;1.43;;;;;;;10.93;98.87;96361.19;5114202;23;20590;-88
2022/11/18 02:07:56;;;;;;;1.50;1.00;;;;;;;10.93;98.80;96371.63;5116654;23;21185;-88
2022/11/18 02:10:02;;;;;;;2.10;1.27;;;;;;;10.93;99.07;96369.00;5114012;23;21370;-88
2022/11/18 02:12:08;;;;;;;2.30;1.43;;;;;;;10.93;99.22;96373.38;5114677;23;20582;-88
2022/11/18 02:14:11;;;;;;;1.90;1.40;;;;;;;10.94;98.96;96373.22;5115002;23;20579;-88
2022/11/18 02:16:15;;;;;;;2.77;1.20;;;;;;;10.94;98.49;96373.22;5090125;23;21182;-88
2022/11/18 02:18:27;;;;;;;2.10;1.40;;;;;;;10.94;98.24;96377.63;5115830;23;20595;-88
2022/11/18 02:20:32;;;;;;;2.13;1.30;;;;;;;10.93;97.58;96376.84;5090529;23;20693;-88
2022/11/18 02:22:47;;;;;;;3.20;1.30;;;;;;;10.94;98.40;96386.28;5114125;23;20581;-88
2022/11/18 02:24:56;;;;;;;3.30;1.80;;;;;;;10.93;97.74;96378.59;5090700;23;20686;-88
2022/11/18 02:27:35;;;;;;;1.60;1.23;;;;;;;10.94;98.95;96377.63;5090455;23;20641;-88
2022/11/18 02:29:42;;;;;;;5.47;1.47;;;;;;;10.92;98.84;96393.44;5066795;23;20609;-87
2022/11/18 02:31:51;;;;;;;1.43;0.90;;;;;;;10.95;98.81;96402.75;5091112;23;20575;-88
2022/11/18 02:33:56;;;;;;;1.60;1.10;;;;;;;10.93;98.90;96397.69;5114338;23;20584;-88
2022/11/18 02:36:05;;;;;;;2.07;0.90;;;;;;;10.93;98.61;96402.91;5114423;23;20640;-88
2022/11/18 02:38:10;;;;;;;1.53;0.80;;;;;;;10.92;98.61;96395.25;5089656;23;20582;-88
2022/11/18 02:40:16;;;;;;;1.37;0.77;;;;;;;10.90;98.46;96403.22;5089425;23;20587;-88
2022/11/18 02:42:19;;;;;;;1.20;0.80;;;;;;;10.89;97.86;96405.97;5089653;23;20610;-87
2022/11/18 02:44:25;;;;;;;2.83;1.13;;;;;;;10.88;99.47;96405.16;5089459;23;20630;-87
2022/11/18 02:46:32;;;;;;;1.87;0.77;;;;;;;10.89;98.87;96401.56;5114778;23;20574;-87
2022/11/18 02:48:40;;;;;;;2.10;0.80;;;;;;;10.91;99.90;96409.22;5113908;23;20955;-87
2022/11/18 02:50:44;;;;;;;2.03;0.77;;;;;;;10.92;99.43;96398.66;5089281;23;20583;-87
2022/11/18 02:52:51;;;;;;;1.50;0.73;;;;;;;10.92;99.19;96401.25;5115770;23;20968;-88
2022/11/18 02:54:55;;;;;;;1.77;0.80;;;;;;;10.93;98.67;96391.63;5086589;23;20951;-87
2022/11/18 02:56:59;;;;;;;1.10;0.70;;;;;;;10.93;99.43;96395.09;5090352;23;20575;-88
2022/11/18 02:59:02;;;;;;;2.20;0.60;;;;;;;10.94;99.77;96394.09;5084399;23;20583;-88
2022/11/18 03:01:06;;;;;;;1.90;0.60;;;;;;;10.96;99.04;96397.41;5113591;23;20676;-88
2022/11/18 03:03:27;;;;;;;3.63;0.63;;;;;;;10.96;98.69;96407.84;5089563;23;20592;-87
2022/11/18 03:05:36;;;;;;;1.37;0.53;;;;;;;10.96;98.90;96401.78;5114630;23;20574;-88
2022/11/18 03:07:41;;;;;;;1.63;0.60;;;;;;;10.95;97.76;96407.97;5115043;23;20914;-88
2022/11/18 03:09:47;;;;;;;1.37;0.70;;;;;;;10.92;99.06;96406.47;5114891;23;20581;-88
2022/11/18 03:11:55;;;;;;;2.40;0.70;;;;;;;10.93;98.88;96418.56;5090482;23;20586;-88
2022/11/18 03:14:08;;;;;;;3.37;0.83;;;;;;;10.92;99.03;96419.53;5114872;23;20566;-88
2022/11/18 03:16:14;;;;;;;1.47;0.70;;;;;;;10.91;98.74;96425.69;5140098;23;20585;-87
2022/11/18 03:18:25;;;;;;;1.47;0.53;;;;;;;10.90;99.97;96431.91;5088505;23;20585;-87
2022/11/18 03:20:30;;;;;;;2.73;0.70;;;;;;;10.90;99.94;96423.25;5114891;23;21372;-88
2022/11/18 03:22:39;;;;;;;0.97;0.50;;;;;;;10.88;99.66;96436.44;5089954;23;20571;-87
2022/11/18 03:24:45;;;;;;;1.80;0.73;;;;;;;10.86;99.93;96440.97;5113662;23;20582;-88
2022/11/18 03:26:51;;;;;;;1.73;0.80;;;;;;;10.84;100.00;96448.13;5114157;23;20574;-88
2022/11/18 03:28:56;;;;;;;1.20;0.70;;;;;;;10.84;100.00;96448.13;5115083;23;20624;-87
2022/11/18 03:31:03;;;;;;;4.30;0.93;;;;;;;10.85;100.00;96447.19;5088801;23;20568;-88
2022/11/18 03:33:10;;;;;;;2.60;1.00;;;;;;;10.85;99.91;96459.38;5089134;23;20586;-88
2022/11/18 03:35:18;;;;;;;2.03;0.90;;;;;;;10.86;100.00;96461.84;5089380;23;20699;-88
2022/11/18 03:37:22;;;;;;;3.57;0.97;;;;;;;10.87;100.00;96460.88;5089241;23;20590;-88
2022/11/18 03:39:26;;;;;;;1.80;0.80;;;;;;;10.89;100.00;96465.94;5115588;23;20928;-87
2022/11/18 03:41:33;;;;;;;1.73;0.90;;;;;;;10.90;100.00;96472.81;5113660;23;20602;-87
2022/11/18 03:43:38;;;;;;;2.27;0.70;;;;;;;10.90;100.00;96473.63;5113955;23;20586;-88
2022/11/18 03:45:44;;;;;;;2.67;1.00;;;;;;;10.89;100.00;96471.97;5089103;23;20579;-87
2022/11/18 03:47:50;;;;;;;1.73;0.90;;;;;;;10.89;100.00;96476.38;5115030;23;20624;-87
2022/11/18 03:49:56;;;;;;;3.47;1.20;;;;;;;10.87;100.00;96476.53;5089118;23;20667;-87
2022/11/18 03:52:06;;;;;;;2.60;0.90;;;;;;;10.90;100.00;96486.66;5089296;23;20642;-88
2022/11/18 03:54:12;;;;;;;3.43;0.87;;;;;;;10.89;100.00;96485.00;5113563;23;20594;-87
2022/11/18 03:56:16;;;;;;;2.27;1.20;;;;;;;10.85;100.00;96485.44;5088870;23;21031;-88
2022/11/18 03:58:23;;;;;;;2.67;1.00;;;;;;;10.84;100.00;96483.84;5113714;23;20578;-87
2022/11/18 04:00:27;;;;;;;2.23;1.20;;;;;;;10.74;100.00;96490.06;5085663;23;20996;-87
2022/11/18 04:02:30;;;;;;;3.07;1.40;;;;;;;10.65;100.00;96485.72;5088221;23;20609;-87
2022/11/18 04:04:33;;;;;;;2.25;1.33;;;;;;;10.57;100.00;96485.59;5088719;23;20986;-87
2022/11/18 04:06:38;;;;;;;1.73;1.27;;;;;;;10.47;100.00;96484.81;5113916;23;20611;-86
2022/11/18 04:08:43;;;;;;;3.17;1.80;;;;;;;10.34;100.00;96485.16;5112042;23;20613;-87
2022/11/18 04:10:50;;;;;;;3.93;1.47;;;;;;;10.18;100.00;96478.91;5088998;23;20649;-87
2022/11/18 04:13:00;;;;;;;2.20;1.10;;;;;;;10.19;100.00;96490.13;5089044;23;20583;-88
2022/11/18 04:15:09;;;;;;;2.80;0.70;;;;;;;10.22;100.00;96492.44;5114205;23;20581;-88
2022/11/18 04:17:13;;;;;;;2.70;0.93;;;;;;;10.24;100.00;96496.56;5089627;23;20618;-87
2022/11/18 04:19:16;;;;;;;1.23;1.00;;;;;;;10.26;100.00;96502.44;5088972;23;20614;-87
2022/11/18 04:21:19;;;;;;;5.17;0.97;;;;;;;10.31;100.00;96512.44;5138169;23;20609;-88
2022/11/18 04:23:22;;;;;;;1.87;0.97;;;;;;;10.32;100.00;96514.91;5115278;23;20629;-88
2022/11/18 04:25:27;;;;;;;2.20;1.00;;;;;;;10.34;100.00;96513.81;5113132;23;20589;-88
2022/11/18 04:27:30;;;;;;;1.30;0.60;;;;;;;10.35;100.00;96512.84;5113870;23;21145;-87
2022/11/18 04:29:34;;;;;;;1.30;0.60;;;;;;;10.37;100.00;96523.13;5114681;23;20644;-87
2022/11/18 04:31:37;;;;;;;2.80;0.97;;;;;;;10.39;100.00;96513.38;5113822;23;20578;-87
2022/11/18 04:33:40;;;;;;;1.50;1.00;;;;;;;10.41;100.00;96519.28;5109608;23;20609;-87
2022/11/18 04:35:43;;;;;;;1.57;0.50;;;;;;;10.41;100.00;96516.66;5114768;23;20582;-88
2022/11/18 04:37:46;;;;;;;1.53;0.43;;;;;;;10.41;100.00;96516.66;5089003;23;20571;-87
2022/11/18 04:39:49;;;;;;;1.40;0.50;;;;;;;10.40;100.00;96518.47;5113596;23;20589;-87
2022/11/18 04:41:55;;;;;;;1.33;0.60;;;;;;;10.41;100.00;96524.47;5113174;23;20634;-87
2022/11/18 04:43:58;;;;;;;1.63;0.77;;;;;;;10.40;100.00;96526.28;5088866;23;20591;-87
2022/11/18 04:46:01;;;;;;;1.07;0.73;;;;;;;10.42;100.00;96526.13;5112741;23;20555;-87
2022/11/18 04:48:05;;;;;;;3.53;0.83;;;;;;;10.42;100.00;96526.13;5117370;23;20890;-87
2022/11/18 04:50:09;;;;;;;1.40;0.60;;;;;;;10.42;100.00;96531.34;5090608;23;20649;-87
2022/11/18 04:52:12;;;;;;;1.03;0.53;;;;;;;10.44;100.00;96529.41;5116105;23;21067;-87
2022/11/18 04:54:16;;;;;;;2.27;0.47;;;;;;;10.42;99.94;96532.16;5089996;23;20606;-87
2022/11/18 04:56:19;;;;;;;1.07;0.60;;;;;;;10.43;99.78;96530.38;5090036;23;20975;-87
2022/11/18 04:58:23;;;;;;;3.27;0.70;;;;;;;10.42;100.00;96528.75;5115478;23;20578;-87
2022/11/18 05:00:26;;;;;;;2.30;0.67;;;;;;;10.40;100.00;96534.09;5089178;23;20586;-87
2022/11/18 05:02:29;;;;;;;2.90;0.60;;;;;;;10.41;99.79;96534.91;5087455;23;20729;-88
2022/11/18 05:04:34;;;;;;;1.30;0.50;;;;;;;10.44;100.00;96534.63;5112323;23;21013;-88
2022/11/18 05:06:37;;;;;;;1.80;0.90;;;;;;;10.45;100.00;96536.28;5114535;23;20597;-88
2022/11/18 05:08:40;;;;;;;2.00;0.70;;;;;;;10.45;99.59;96539.69;5115065;23;20633;-88
2022/11/18 05:10:43;;;;;;;1.03;0.50;;;;;;;10.44;99.78;96545.88;5115609;23;20586;-88
2022/11/18 05:12:48;;;;;;;1.47;0.57;;;;;;;10.44;100.00;96540.66;5090490;23;20578;-88
2022/11/18 05:14:52;;;;;;;0.97;0.50;;;;;;;10.44;99.76;96550.25;5140560;23;20573;-87
2022/11/18 05:16:57;;;;;;;1.00;0.40;;;;;;;10.42;99.67;96547.00;5114304;23;20594;-87
2022/11/18 05:19:01;;;;;;;3.00;0.60;;;;;;;10.41;99.67;96553.97;5116661;23;20586;-86
2022/11/18 05:21:05;;;;;;;1.00;0.50;;;;;;;10.40;98.96;96560.16;5090115;23;20579;-86
2022/11/18 05:23:08;;;;;;;1.73;0.67;;;;;;;10.39;99.49;96555.91;5114082;23;20713;-87
2022/11/18 05:25:11;;;;;;;1.73;0.50;;;;;;;10.38;99.86;96554.25;5114334;23;21137;-86
2022/11/18 05:27:15;;;;;;;2.50;0.60;;;;;;;10.39;98.64;96557.69;5088456;23;20658;-88
2022/11/18 05:29:18;;;;;;;0.97;0.43;;;;;;;10.38;100.00;96567.28;5088930;23;21118;-85
2022/11/18 05:31:23;;;;;;;1.93;0.57;;;;;;;10.37;100.00;96564.81;5114323;23;20577;-86
2022/11/18 05:33:26;;;;;;;1.43;0.40;;;;;;;10.35;98.45;96564.94;5088575;23;20600;-86
2022/11/18 05:35:30;;;;;;;2.17;0.60;;;;;;;10.34;99.31;96565.94;5090133;23;20674;-86
2022/11/18 05:37:33;;;;;;;2.40;0.70;;;;;;;10.32;98.59;96563.59;5115853;23;21187;-86
2022/11/18 05:39:36;;;;;;;1.93;0.43;;;;;;;10.32;98.51;96567.03;5089831;23;20579;-86
2022/11/18 05:44:00;;;;;;;1.73;0.60;;;;;;;10.31;98.83;96573.19;5089792;23;20602;-86
2022/11/18 05:46:04;;;;;;;1.33;0.50;;;;;;;10.31;98.65;96570.56;5113429;23;20614;-87
2022/11/18 05:48:08;;;;;;;1.90;0.73;;;;;;;10.32;99.87;96574.03;5114125;23;21110;-86
2022/11/18 05:50:11;;;;;;;1.47;0.80;;;;;;;10.31;100.00;96581.00;5089957;23;20589;-85
2022/11/18 05:52:19;;;;;;;2.20;0.70;;;;;;;10.27;98.66;96584.88;5088944;23;20576;-85
2022/11/18 05:54:22;;;;;;;1.57;0.87;;;;;;;10.22;99.36;96581.84;5113037;23;20590;-86
2022/11/18 05:56:28;;;;;;;1.83;0.90;;;;;;;10.21;99.35;96590.63;5089870;23;20988;-86
2022/11/18 05:58:31;;;;;;;1.40;1.00;;;;;;;10.16;98.50;96592.00;5113279;23;20574;-85
2022/11/18 06:00:35;;;;;;;2.90;1.40;;;;;;;10.11;98.26;96595.03;5115711;23;20957;-85
2022/11/18 06:02:38;;;;;;;1.93;1.30;;;;;;;10.10;98.15;96596.00;5113286;23;20606;-86
2022/11/18 06:04:45;;;;;;;1.40;1.00;;;;;;;10.08;99.51;96589.28;5115202;23;20645;-86
2022/11/18 06:06:49;;;;;;;2.37;1.53;;;;;;;10.11;98.86;96600.22;5114240;23;20568;-85
2022/11/18 06:08:55;;;;;;;1.47;0.90;;;;;;;10.13;99.71;96600.94;5115562;23;20674;-85
2022/11/18 06:10:59;;;;;;;1.70;0.70;;;;;;;10.14;99.13;96610.38;5114708;23;20895;-86
2022/11/18 06:13:05;;;;;;;1.37;0.70;;;;;;;10.15;99.92;96605.97;5089577;23;20615;-85
2022/11/18 06:15:13;;;;;;;2.23;1.07;;;;;;;10.18;99.81;96610.91;5113533;23;20693;-86
2022/11/18 06:17:18;;;;;;;1.47;0.90;;;;;;;10.19;98.64;96613.38;5115291;23;20573;-86
2022/11/18 06:19:21;;;;;;;3.07;1.93;;;;;;;10.21;99.63;96608.88;5114762;23;20570;-86
2022/11/18 06:21:26;;;;;;;5.43;2.20;;;;;;;10.22;99.73;96613.09;5089347;23;20679;-87
2022/11/18 06:23:31;;;;;;;5.10;1.70;;;;;;;10.24;99.11;96621.63;5089873;23;20663;-86
2022/11/18 06:25:37;;;;;;;1.70;0.80;;;;;;;10.25;99.94;96628.47;5114905;23;20602;-85
2022/11/18 06:27:41;;;;;;;1.40;0.60;;;;;;;10.27;98.43;96621.34;5114098;23;21096;-86
2022/11/18 06:29:44;;;;;;;1.53;1.00;;;;;;;10.30;98.88;96626.28;5089183;23;20690;-86
2022/11/18 06:31:47;;;;;;;4.70;2.47;;;;;;;10.32;99.15;96624.34;5114817;23;21293;-87
2022/11/18 06:33:50;;;;;;;4.23;2.83;;;;;;;10.33;97.87;96626.00;5113169;23;20585;-85
2022/11/18 06:35:53;;;;;;;3.50;2.13;;;;;;;10.33;97.76;96632.03;5114158;23;20688;-86
2022/11/18 06:37:57;;;;;;;17.33;10.83;;;;;;;10.33;98.36;96637.25;5112980;23;20561;-84
2022/11/18 06:40:00;;;;;;;4.17;2.03;;;;;;;10.33;98.43;96641.63;5088741;23;20618;-85
2022/11/18 06:42:04;;;;;;;2.00;1.00;;;;;;;10.32;98.68;96627.75;5088327;23;20583;-85
2022/11/18 06:44:06;;;;;;;2.63;1.80;;;;;;;10.32;98.00;96631.34;5113930;23;20598;-85
2022/11/18 06:48:31;;;;;;;2.23;1.10;;;;;;;10.30;98.69;96639.31;5113132;23;21141;-86
2022/11/18 06:50:34;;;;;;;4.60;4.20;;;;;;;10.31;97.65;96648.75;5114881;23;20620;-86
2022/11/18 06:52:38;;;;;;;10.33;7.80;;;;;;;10.30;98.82;96643.69;5113917;23;20603;-86
2022/11/18 06:54:43;;;;;;;8.00;5.53;;;;;;;10.31;98.71;96642.72;5112725;23;20601;-87
2022/11/18 06:56:46;;;;;;;3.20;2.50;;;;;;;10.32;98.15;96646.97;5090069;23;20602;-87
2022/11/18 06:58:53;;;;;;;1.40;1.10;;;;;;;10.32;99.07;96651.22;5113887;23;20613;-86
2022/11/18 07:00:56;;;;;;;2.03;1.37;;;;;;;10.32;98.96;96650.41;5089469;23;20572;-86
2022/11/18 07:02:59;;;;;;;3.63;1.87;;;;;;;10.33;98.34;96655.47;5089094;23;20665;-86
2022/11/18 07:05:02;;;;;;;3.17;1.90;;;;;;;10.32;99.31;96660.81;5089855;23;20917;-86
2022/11/18 07:07:05;;;;;;;4.37;3.33;;;;;;;10.30;98.45;96662.75;5113847;23;20588;-86
2022/11/18 07:09:08;;;;;;;3.97;2.70;;;;;;;10.33;98.55;96673.72;5088903;23;21131;-86
2022/11/18 07:11:15;;;;;;;2.47;1.80;;;;;;;10.34;98.52;96666.72;5114281;23;20674;-85
2022/11/18 07:13:18;;;;;;;3.10;2.60;;;;;;;10.35;99.49;96670.97;5113328;23;21122;-85
2022/11/18 07:15:21;;;;;;;2.83;2.03;;;;;;;10.35;99.77;96679.59;5088182;23;20581;-86
2022/11/18 07:17:25;;;;;;;2.10;1.40;;;;;;;10.35;99.34;96677.00;5089350;23;20599;-86
2022/11/18 07:19:28;;;;;;;1.53;0.93;;;;;;;10.34;98.76;96685.78;5114235;23;20676;-86
2022/11/18 07:21:38;;;;;;;2.03;1.33;;;;;;;10.35;98.97;96689.22;5116252;23;20574;-86
2022/11/18 07:23:41;;;;;;;2.00;1.20;;;;;;;10.33;99.56;96683.31;5113955;23;20704;-86
2022/11/18 07:25:45;;;;;;;3.67;1.10;;;;;;;10.32;98.81;96699.09;5113968;23;20583;-85
2022/11/18 07:27:50;;;;;;;2.90;1.50;;;;;;;10.31;99.64;96695.66;5113050;23;20574;-85
2022/11/18 07:29:53;;;;;;;2.00;1.50;;;;;;;10.32;100.00;96699.09;5088884;23;20567;-86
2022/11/18 07:31:56;;;;;;;3.40;1.53;;;;;;;10.31;99.76;96694.84;5109802;23;20575;-85
2022/11/18 07:33:59;;;;;;;3.80;1.73;;;;;;;10.26;99.63;96692.63;5085212;23;21095;-85
2022/11/18 07:36:04;;;;;;;2.10;1.30;;;;;;;10.21;99.16;96691.41;5109764;23;20588;-85
2022/11/18 07:38:07;;;;;;;2.53;0.90;;;;;;;10.21;98.63;96699.22;5109936;23;20586;-84
2022/11/18 07:40:10;;;;;;;3.27;1.30;;;;;;;10.20;99.06;96701.00;5087394;23;20641;-85
2022/11/18 07:42:15;;;;;;;1.90;1.20;;;;;;;10.17;99.48;96703.88;5113449;23;20582;-85
2022/11/18 07:44:20;;;;;;;2.60;1.10;;;;;;;10.20;99.02;96715.81;5087057;23;20936;-85
2022/11/18 07:46:24;;;;;;;2.23;1.00;;;;;;;10.20;99.82;96708.81;5089465;23;20564;-85
2022/11/18 07:48:28;;;;;;;1.70;1.13;;;;;;;10.21;99.95;96720.06;5089196;23;20587;-85
2022/11/18 07:50:32;;;;;;;2.80;1.13;;;;;;;10.19;100.00;96721.97;5113544;23;20588;-85
2022/11/18 07:52:35;;;;;;;1.83;0.87;;;;;;;10.15;99.81;96720.59;5089456;23;21139;-85
2022/11/18 07:54:39;;;;;;;1.60;1.03;;;;;;;10.11;99.50;96724.44;5114462;23;20704;-86
2022/11/18 07:56:42;;;;;;;1.17;0.70;;;;;;;10.13;100.00;96725.97;5115409;23;20573;-85
2022/11/18 07:58:46;;;;;;;2.23;0.87;;;;;;;10.11;99.96;96730.47;5090268;23;20583;-86
2022/11/18 08:00:50;;;;;;;3.43;1.20;;;;;;;10.14;99.57;96740.63;5115550;23;20666;-85
2022/11/18 08:02:54;;;;;;;1.97;0.90;;;;;;;10.13;100.00;96736.38;5089742;23;20684;-84
2022/11/18 08:05:02;;;;;;;1.67;0.70;;;;;;;10.15;99.67;96739.66;5088977;23;20698;-83
2022/11/18 08:07:09;;;;;;;1.97;0.90;;;;;;;10.14;100.00;96740.63;5090074;23;20674;-85
2022/11/18 08:09:13;;;;;;;1.30;1.00;;;;;;;10.15;100.00;96741.44;5090616;23;21149;-85
2022/11/18 08:11:17;;;;;;;2.00;1.30;;;;;;;10.16;100.00;96746.50;5114004;23;20656;-85
2022/11/18 08:13:28;;;;;;;1.50;1.23;;;;;;;10.18;100.00;96749.81;5113553;23;20645;-86
2022/11/18 08:15:31;;;;;;;3.20;2.00;;;;;;;10.22;100.00;96759.00;5091884;23;20632;-86
2022/11/18 08:17:36;;;;;;;2.50;1.07;;;;;;;10.22;100.00;96753.78;5115291;23;20714;-85
2022/11/18 08:19:39;;;;;;;2.50;1.30;;;;;;;10.23;100.00;96750.22;5115708;23;20570;-86
2022/11/18 08:21:43;;;;;;;1.73;1.23;;;;;;;10.23;100.00;96749.41;5090472;23;20690;-85
2022/11/18 08:23:50;;;;;;;3.13;1.20;;;;;;;10.24;100.00;96757.09;5116002;23;20622;-86
2022/11/18 08:26:01;;;;;;;2.07;1.30;;;;;;;10.28;100.00;96762.84;5092092;23;20586;-86
2022/11/18 08:28:05;;;;;;;2.17;1.17;;;;;;;10.28;100.00;96763.66;5114934;23;21236;-86
2022/11/18 08:30:09;;;;;;;4.87;0.97;;;;;;;10.30;100.00;96761.78;5090549;23;20909;-85
2022/11/18 08:32:13;;;;;;;2.77;1.60;;;;;;;10.33;100.00;96771.91;5115963;23;20574;-85
2022/11/18 08:34:18;;;;;;;1.50;1.10;;;;;;;10.34;100.00;96774.41;5114236;23;20586;-86
2022/11/18 08:36:22;;;;;;;2.80;1.33;;;;;;;10.34;100.00;96770.94;5114804;23;20642;-86
2022/11/18 08:38:26;;;;;;;1.90;1.43;;;;;;;10.37;100.00;96778.50;5116977;23;20573;-86
2022/11/18 08:40:30;;;;;;;3.63;1.70;;;;;;;10.36;100.00;96774.25;5115784;23;20583;-85
2022/11/18 08:42:36;;;;;;;2.60;1.73;;;;;;;10.38;99.33;96780.16;5114662;23;20636;-86
2022/11/18 08:44:39;;;;;;;1.87;1.37;;;;;;;10.39;100.00;96785.22;5116831;23;21447;-85
2022/11/18 08:46:44;;;;;;;2.00;1.50;;;;;;;10.40;100.00;96788.66;5115384;23;20664;-86
2022/11/18 08:48:47;;;;;;;1.77;1.40;;;;;;;10.41;99.82;96785.09;5091900;23;21024;-86
2022/11/18 08:50:53;;;;;;;1.90;1.43;;;;;;;10.41;100.00;96785.09;5089879;23;20571;-86
2022/11/18 08:52:56;;;;;;;1.93;1.20;;;;;;;10.43;99.78;96793.59;5116601;23;20578;-86
2022/11/18 08:55:01;;;;;;;2.30;1.17;;;;;;;10.46;100.00;96793.31;5114950;23;20616;-86
2022/11/18 08:57:04;;;;;;;1.47;1.13;;;;;;;10.46;98.92;96798.53;5115265;23;20656;-86
2022/11/18 08:59:08;;;;;;;2.23;1.30;;;;;;;10.47;100.00;96794.97;5090233;23;20602;-86
2022/11/18 09:01:11;;;;;;;2.63;1.10;;;;;;;10.50;100.00;96799.91;5090522;23;20634;-86
2022/11/18 09:03:14;;;;;;;1.60;1.20;;;;;;;10.50;98.73;96794.69;5090352;23;20585;-86
2022/11/18 09:05:17;;;;;;;1.83;1.30;;;;;;;10.52;99.77;96803.19;5114764;23;20602;-86
2022/11/18 09:07:22;;;;;;;1.37;1.07;;;;;;;10.52;98.72;96805.81;5089707;23;21131;-86
2022/11/18 09:09:25;;;;;;;2.77;1.60;;;;;;;10.55;99.09;96808.13;5090302;23;20601;-86
2022/11/18 09:11:28;;;;;;;2.17;1.30;;;;;;;10.57;98.92;96803.59;5115110;23;20570;-86
2022/11/18 09:13:31;;;;;;;2.77;1.40;;;;;;;10.57;100.00;96809.66;5089830;23;20579;-85
2022/11/18 09:15:57;;;;;;;2.67;1.50;;;;;;;10.58;100.00;96808.69;5115809;23;20637;-85
2022/11/18 09:18:01;;;;;;;2.03;1.33;;;;;;;10.58;99.37;96815.69;5112876;23;20582;-86
2022/11/18 09:20:05;;;;;;;2.53;1.47;;;;;;;10.61;99.55;96818.03;5113568;23;20983;-86
2022/11/18 09:22:08;;;;;;;1.53;1.20;;;;;;;10.60;100.00;96817.22;5113646;23;21143;-86
2022/11/18 09:24:12;;;;;;;2.90;1.67;;;;;;;10.60;100.00;96822.44;5113466;23;21367;-85
2022/11/18 09:26:18;;;;;;;3.50;2.03;;;;;;;10.61;98.66;96824.06;5113783;23;20597;-85
2022/11/18 09:28:21;;;;;;;2.83;1.70;;;;;;;10.61;98.97;96831.06;5112301;23;20570;-85
2022/11/18 09:30:24;;;;;;;2.67;1.50;;;;;;;10.60;100.00;96825.03;5087851;23;20579;-84
2022/11/18 09:32:27;;;;;;;2.30;1.60;;;;;;;10.60;99.46;96832.84;5112815;23;20578;-84
2022/11/18 09:34:31;;;;;;;2.93;1.80;;;;;;;10.62;99.42;96837.94;5112829;23;20567;-84
2022/11/18 09:36:34;;;;;;;2.10;1.70;;;;;;;10.63;100.00;96834.34;5113587;23;20674;-84
2022/11/18 09:38:37;;;;;;;3.70;2.67;;;;;;;10.62;99.94;96835.31;5090090;23;21150;-84
2022/11/18 09:40:48;;;;;;;2.90;2.20;;;;;;;10.65;99.24;96838.47;5114554;23;21098;-84
2022/11/18 09:42:57;;;;;;;4.33;2.60;;;;;;;10.67;99.14;96843.56;5087459;23;20667;-85
2022/11/18 09:45:08;;;;;;;2.83;1.80;;;;;;;10.65;98.87;96843.69;5113834;23;20609;-85
2022/11/18 09:47:25;;;;;;;2.90;1.97;;;;;;;10.63;98.71;96842.16;5115337;23;20606;-85
2022/11/18 09:49:31;;;;;;;3.00;2.20;;;;;;;10.63;98.85;96843.00;5114001;23;21078;-86
2022/11/18 09:51:39;;;;;;;3.63;1.90;;;;;;;10.65;98.67;96842.88;5088195;23;20622;-85
2022/11/18 09:53:44;;;;;;;3.63;2.00;;;;;;;10.67;99.22;96846.97;5113438;23;20700;-85
2022/11/18 09:55:50;;;;;;;2.73;1.90;;;;;;;10.68;99.29;96848.63;5113528;23;20590;-84
2022/11/18 09:57:55;;;;;;;3.20;2.57;;;;;;;10.70;99.51;96848.50;5113461;23;20665;-85